Terminal Aerodrome Forecast
Issued by NWS Jackson, MS

Home | Current Version | Previous Version | Text Only | Print | Product List | Glossary On
Versions: 1 2 3 4 5 6 7 8 9 10 11 12 13
000
FTUS44 KJAN 211720
TAFHBG
TAF
KHBG 211720Z 2118/2218 03003KT P6SM SCT050
     FM212000 04005KT P6SM VCTS SCT040CB BKN060
     FM220000 03003KT P6SM SCT030 SCT100
     FM221100 00000KT 4SM BR FEW007
     FM221400 VRB03KT P6SM SKC=

USA.gov is the U.S. government's official web portal to all federal, state and local government web resources and services.